Friday, July 20, 2018, 12:29 PM EDT
Back to Local

KERI, Erie International Airport

Location: Erie, PA, United States Lat: 42.083
Local Time: 12:29 PM EDT (16:29 GMT) Lon: -80.183
Time Zone: US/Eastern Elev: 731 ft

Show me the last for .
Show Decoded

2018-07-20 11:51 METAR KERI 201551Z 14013G21KT 10SM CLR 31/17 A2995 RMK AO2 SLP138 T03060167 =
2018-07-20 10:51 METAR KERI 201451Z 17013G21KT 10SM CLR 29/16 A2996 RMK AO2 SLP139 T02890161
                 58012 =
2018-07-20 09:51 METAR KERI 201351Z 16012G18KT 10SM CLR 27/16 A2997 RMK AO2 SLP145 T02670156 =
2018-07-20 08:51 METAR KERI 201251Z 15012KT 10SM CLR 25/15 A2998 RMK AO2 SLP148 T02500150 =
2018-07-20 07:51 METAR KERI 201151Z 15012KT 10SM SCT075 23/14 A2999 RMK AO2 SLP151 T02280144
                 10228 20200 53002 =
2018-07-20 06:51 METAR KERI 201051Z 15011KT 10SM FEW070 21/14 A2998 RMK AO2 SLP148 T02110144 $ =
2018-07-20 05:51 METAR KERI 200951Z AUTO 15011KT 10SM FEW070 21/14 A2998 RMK AO2 SLP149 T02060139
                 $ =
2018-07-20 04:51 METAR KERI 200851Z AUTO 16011KT 10SM CLR 21/14 A2998 RMK AO2 SLP149 T02060144
                 58005 $ =
2018-07-20 03:51 METAR KERI 200751Z AUTO 16009KT 10SM CLR 21/14 A2999 RMK AO2 SLP151 T02060144 $
                 =
2018-07-20 02:51 METAR KERI 200651Z AUTO 15009KT 10SM CLR 21/14 A3000 RMK AO2 SLP152 T02060144 $
                 =
2018-07-20 01:51 METAR KERI 200551Z AUTO 15007KT 10SM CLR 21/14 A3000 RMK AO2 SLP154 T02060139
                 10250 20194 58007 $ =
2018-07-20 00:51 METAR KERI 200451Z AUTO 15006KT 10SM CLR 20/13 A3001 RMK AO2 SLP159 T02000133
                 402720144 $ =
2018-07-19 23:51 METAR KERI 200351Z AUTO 16003KT 10SM CLR 19/12 A3002 RMK AO2 SLP163 T01940117 $
                 =
2018-07-19 22:51 METAR KERI 200251Z 09003KT 10SM CLR 21/10 A3002 RMK AO2 SLP162 T02110100 58001 $
                 =
2018-07-19 21:51 METAR KERI 200151Z 08006KT 10SM CLR 22/08 A3002 RMK AO2 SLP161 T02220083 $ =
2018-07-19 20:51 METAR KERI 200051Z 06007KT 10SM CLR 23/06 A3003 RMK AO2 SLP164 T02330061 $ =
2018-07-19 19:51 METAR KERI 192351Z 05007KT 10SM CLR 25/09 A3002 RMK AO2 SLP163 T02500094 10272
                 20250 58008 $ =
2018-07-19 18:51 METAR KERI 192251Z 03011KT 10SM CLR 26/09 A3003 RMK AO2 SLP167 T02560094 $ =
2018-07-19 17:51 METAR KERI 192151Z 03008KT 10SM CLR 26/09 A3004 RMK AO2 SLP170 T02610094 $ =
2018-07-19 16:51 METAR KERI 192051Z 04012KT 10SM CLR 27/10 A3005 RMK AO2 SLP173 T02670100 56017 $
                 =
2018-07-19 15:51 METAR KERI 191951Z 36010KT 10SM CLR 26/10 A3006 RMK AO2 SLP177 T02610100 $ =
2018-07-19 14:51 METAR KERI 191851Z 36009KT 10SM CLR 26/10 A3008 RMK AO2 SLP183 T02610100 $ =
2018-07-19 13:51 METAR KERI 191751Z 36008KT 10SM CLR 26/09 A3010 RMK AO2 SLP188 T02610089 10261
                 20178 58004 $ =
2018-07-19 12:51 METAR KERI 191651Z 03008KT 10SM CLR 26/11 A3011 RMK AO2 SLP192 T02560106 $ =

Support USWX by starting your Amazon purchase here.